createdAt,value
2023-04-26T00:02:05.224Z,8.98
2023-04-26T00:04:34.383Z,7.85
2023-04-26T00:07:02.123Z,13.38
2023-04-26T00:09:29.805Z,8.15
2023-04-26T00:11:57.711Z,6.30
2023-04-26T00:14:25.218Z,8.02
2023-04-26T00:16:53.039Z,10.63
2023-04-26T00:19:21.477Z,6.35
2023-04-26T00:21:49.086Z,9.45
2023-04-26T00:24:16.529Z,7.65
2023-04-26T00:26:44.049Z,8.20
2023-04-26T00:29:11.529Z,8.60
2023-04-26T00:31:39.135Z,7.80
2023-04-26T00:34:06.676Z,9.10
2023-04-26T00:36:34.273Z,7.30
2023-04-26T00:39:01.502Z,7.38
2023-04-26T00:41:29.047Z,8.10
2023-04-26T00:43:56.355Z,10.57
2023-04-26T00:46:24.084Z,8.23
2023-04-26T00:48:52.153Z,8.75
2023-04-26T00:51:20.440Z,8.63
2023-04-26T00:53:49.023Z,8.55
2023-04-26T00:56:17.309Z,7.47
2023-04-26T00:58:46.382Z,7.07
2023-04-26T01:01:14.124Z,11.30
2023-04-26T01:03:41.573Z,9.25
2023-04-26T01:06:09.336Z,8.27
2023-04-26T01:08:36.741Z,9.82
2023-04-26T01:11:05.478Z,9.80
2023-04-26T01:13:32.965Z,7.97
2023-04-26T01:16:02.220Z,12.70
2023-04-26T01:18:29.499Z,7.10
2023-04-26T01:20:57.283Z,6.63
2023-04-26T01:23:24.614Z,9.20
2023-04-26T01:25:53.824Z,9.65
2023-04-26T01:28:21.142Z,8.82
2023-04-26T01:30:48.924Z,8.65
2023-04-26T01:33:16.454Z,9.80
2023-04-26T01:35:45.065Z,8.30
2023-04-26T01:38:14.715Z,11.27
2023-04-26T01:40:46.191Z,10.30
2023-04-26T01:43:15.584Z,6.65
2023-04-26T01:45:47.181Z,7.82
2023-04-26T01:48:14.578Z,6.90
2023-04-26T01:50:42.192Z,10.02
2023-04-26T01:53:09.455Z,6.68
2023-04-26T01:55:37.317Z,9.77
2023-04-26T01:58:04.605Z,8.20
2023-04-26T02:00:33.871Z,9.65
2023-04-26T02:03:01.243Z,7.07
2023-04-26T02:05:29.045Z,6.07
2023-04-26T02:07:56.720Z,8.30
2023-04-26T02:10:24.319Z,12.77
2023-04-26T02:12:51.626Z,10.80
2023-04-26T02:15:19.271Z,9.98
2023-04-26T02:17:47.014Z,9.73
2023-04-26T02:20:14.618Z,12.10
2023-04-26T02:22:41.908Z,8.25
2023-04-26T02:25:09.824Z,8.45
2023-04-26T02:27:37.218Z,9.52
2023-04-26T02:30:06.039Z,10.90
2023-04-26T02:32:33.429Z,11.25
2023-04-26T02:35:00.978Z,8.63
2023-04-26T02:37:28.334Z,9.75
2023-04-26T02:39:56.067Z,14.38
2023-04-26T02:42:24.957Z,13.55
2023-04-26T02:44:52.523Z,14.35
2023-04-26T02:47:19.855Z,20.92
2023-04-26T02:49:47.737Z,11.55
2023-04-26T02:52:15.079Z,13.48
2023-04-26T02:54:42.573Z,15.35
2023-04-26T02:57:09.998Z,12.77
2023-04-26T02:59:37.553Z,14.82
2023-04-26T03:02:04.889Z,8.25
2023-04-26T03:04:36.207Z,14.95
2023-04-26T03:07:04.674Z,11.68
2023-04-26T03:09:32.355Z,11.48
2023-04-26T03:12:00.480Z,12.20
2023-04-26T03:14:28.032Z,10.63
2023-04-26T03:16:55.634Z,11.00
2023-04-26T03:19:23.986Z,11.43
2023-04-26T03:21:51.701Z,12.77
2023-04-26T03:24:19.257Z,14.75
2023-04-26T03:26:47.790Z,15.40
2023-04-26T03:29:17.914Z,12.70
2023-04-26T03:31:46.103Z,15.65
2023-04-26T03:34:15.868Z,12.93
2023-04-26T03:36:43.634Z,19.33
2023-04-26T03:39:11.612Z,14.65
2023-04-26T03:41:40.510Z,16.45
2023-04-26T03:44:08.202Z,14.43
2023-04-26T03:46:35.516Z,14.85
2023-04-26T03:49:03.134Z,17.45
2023-04-26T03:51:31.442Z,15.15
2023-04-26T03:53:59.839Z,12.35
2023-04-26T03:56:27.141Z,17.63
2023-04-26T03:58:54.768Z,11.10
2023-04-26T04:01:22.030Z,14.88
2023-04-26T04:03:49.860Z,12.75
2023-04-26T04:06:17.471Z,12.93
2023-04-26T04:08:45.119Z,12.13
2023-04-26T04:11:12.386Z,15.50
2023-04-26T04:13:40.129Z,18.15
2023-04-26T04:16:10.307Z,14.32
2023-04-26T04:18:38.178Z,12.43
2023-04-26T04:21:05.593Z,15.52
2023-04-26T04:23:33.156Z,17.08
2023-04-26T04:26:00.555Z,19.05
2023-04-26T04:28:28.160Z,20.55
2023-04-26T04:30:57.223Z,13.30
2023-04-26T04:33:28.679Z,10.55
2023-04-26T04:35:56.564Z,13.30
2023-04-26T04:38:24.613Z,11.15
2023-04-26T04:40:52.366Z,11.90
2023-04-26T04:43:21.498Z,16.95
2023-04-26T04:45:49.537Z,12.10
2023-04-26T04:48:18.612Z,14.75
2023-04-26T04:50:46.004Z,14.63
2023-04-26T04:53:13.592Z,14.43
2023-04-26T04:55:41.752Z,15.38
2023-04-26T04:58:09.272Z,12.50
2023-04-26T05:00:38.165Z,14.60
2023-04-26T05:03:05.861Z,16.15
2023-04-26T05:05:33.665Z,16.73
2023-04-26T05:08:01.324Z,12.48
2023-04-26T05:10:28.655Z,11.60
2023-04-26T05:12:56.215Z,12.45
2023-04-26T05:15:23.536Z,11.30
2023-04-26T05:17:51.887Z,13.05
2023-04-26T05:20:19.277Z,11.20
2023-04-26T05:22:47.638Z,15.75
2023-04-26T05:25:15.176Z,14.63
2023-04-26T05:27:42.836Z,13.82
2023-04-26T05:30:11.080Z,22.88
2023-04-26T05:32:38.699Z,15.60
2023-04-26T05:35:06.361Z,18.05
2023-04-26T05:37:34.620Z,16.08
2023-04-26T05:40:02.364Z,17.63
2023-04-26T05:42:29.930Z,32.97
2023-04-26T05:45:00.308Z,20.52
2023-04-26T05:47:27.996Z,22.25
2023-04-26T05:49:55.240Z,38.88
2023-04-26T05:52:23.171Z,11.13
2023-04-26T05:54:50.478Z,8.70
2023-04-26T05:57:19.137Z,11.18
2023-04-26T05:59:47.075Z,5.90
2023-04-26T06:02:14.726Z,8.20
2023-04-26T06:04:42.209Z,12.77
2023-04-26T06:07:10.093Z,9.60
2023-04-26T06:09:37.525Z,19.00
2023-04-26T06:12:05.839Z,13.43
2023-04-26T06:14:33.209Z,7.57
2023-04-26T06:17:19.295Z,22.77
2023-04-26T06:19:47.004Z,14.85
2023-04-26T06:22:14.585Z,10.93
2023-04-26T06:24:42.017Z,6.40
2023-04-26T06:27:09.590Z,5.72
2023-04-26T06:29:36.852Z,7.78
2023-04-26T06:32:04.747Z,6.50
2023-04-26T06:34:32.064Z,5.13
2023-04-26T06:36:59.812Z,6.55
2023-04-26T06:39:27.222Z,8.80
2023-04-26T06:41:54.828Z,11.45
2023-04-26T06:44:22.321Z,6.50
2023-04-26T06:46:49.920Z,6.68
2023-04-26T06:49:17.217Z,5.63
2023-04-26T06:51:44.775Z,9.38
2023-04-26T06:54:13.144Z,12.50
2023-04-26T06:56:40.917Z,9.90
2023-04-26T06:59:08.403Z,16.48
2023-04-26T07:01:36.163Z,8.10
2023-04-26T07:04:08.211Z,7.45
2023-04-26T07:06:37.505Z,8.98
2023-04-26T07:09:05.385Z,11.25
2023-04-26T07:11:33.003Z,4.68
2023-04-26T07:14:00.542Z,5.35
2023-04-26T07:16:28.525Z,5.70
2023-04-26T07:18:59.659Z,5.78
2023-04-26T07:21:27.388Z,4.50
2023-04-26T07:23:58.201Z,9.73
2023-04-26T07:26:27.865Z,8.45
2023-04-26T07:28:55.588Z,14.35
2023-04-26T07:31:23.401Z,14.25
2023-04-26T07:33:51.141Z,6.93
2023-04-26T07:36:19.010Z,7.72
2023-04-26T07:38:46.278Z,8.77
2023-04-26T07:41:14.107Z,17.55
2023-04-26T07:43:41.417Z,10.35
2023-04-26T07:46:09.066Z,7.40
2023-04-26T07:48:36.778Z,4.97
2023-04-26T07:51:14.218Z,6.70
2023-04-26T07:53:41.787Z,7.68
2023-04-26T07:56:10.182Z,5.60
2023-04-26T07:58:39.695Z,4.78
2023-04-26T08:01:07.673Z,5.15
2023-04-26T08:03:35.169Z,7.25
2023-04-26T08:06:03.465Z,5.63
2023-04-26T08:08:32.376Z,5.20
2023-04-26T08:11:00.044Z,6.22
2023-04-26T08:13:29.355Z,5.03
2023-04-26T08:15:57.343Z,5.47
2023-04-26T08:18:24.643Z,6.90
2023-04-26T08:20:55.236Z,6.22
2023-04-26T08:23:23.325Z,5.60
2023-04-26T08:25:51.009Z,7.13
2023-04-26T08:28:18.339Z,6.25
2023-04-26T08:30:45.936Z,9.85
2023-04-26T08:33:13.305Z,30.73
2023-04-26T08:35:41.308Z,13.93
2023-04-26T08:38:08.601Z,6.97
2023-04-26T08:40:36.981Z,7.50
2023-04-26T08:43:04.445Z,5.70
2023-04-26T08:45:35.374Z,4.55
2023-04-26T08:48:14.980Z,6.55
2023-04-26T08:50:46.713Z,8.88
2023-04-26T08:53:18.246Z,9.45
2023-04-26T08:55:53.390Z,4.72
2023-04-26T08:58:21.888Z,4.47
2023-04-26T09:00:51.399Z,5.10
2023-04-26T09:03:19.064Z,4.38
2023-04-26T09:05:47.246Z,4.25
2023-04-26T09:08:18.399Z,40.00
2023-04-26T09:10:46.664Z,4.15
2023-04-26T09:13:14.603Z,2.80
2023-04-26T09:15:42.478Z,5.63
2023-04-26T09:18:23.432Z,2.88
2023-04-26T09:21:08.725Z,4.90
2023-04-26T09:23:36.718Z,3.15
2023-04-26T09:26:21.686Z,2.25
2023-04-26T09:28:50.676Z,2.83
2023-04-26T09:31:46.342Z,4.07
2023-04-26T09:34:16.171Z,4.88
2023-04-26T09:36:57.257Z,6.38
2023-04-26T09:39:35.523Z,5.85
2023-04-26T09:42:04.968Z,4.95
2023-04-26T09:44:33.052Z,4.60
2023-04-26T09:47:10.443Z,10.93
2023-04-26T09:49:51.882Z,6.05
2023-04-26T09:52:20.394Z,6.90
2023-04-26T09:54:51.895Z,3.08
2023-04-26T09:57:22.425Z,5.97
2023-04-26T09:59:55.044Z,6.20
2023-04-26T10:02:28.202Z,3.78
2023-04-26T10:04:57.603Z,3.83
2023-04-26T10:07:26.347Z,5.25
2023-04-26T10:09:55.856Z,3.45
2023-04-26T10:12:23.668Z,4.25
2023-04-26T10:14:51.061Z,3.40
2023-04-26T10:17:21.161Z,4.55
2023-04-26T10:19:54.900Z,3.65
2023-04-26T10:22:32.381Z,10.85
2023-04-26T10:25:00.565Z,3.83
2023-04-26T10:27:46.980Z,2.25
2023-04-26T10:30:17.492Z,4.13
2023-04-26T10:32:56.999Z,3.30
2023-04-26T10:35:29.300Z,4.57
2023-04-26T10:37:59.706Z,4.10
2023-04-26T10:40:29.529Z,1.90
2023-04-26T10:43:09.904Z,4.35
2023-04-26T10:45:38.486Z,4.50
2023-04-26T10:48:22.650Z,4.28
2023-04-26T10:51:02.225Z,2.65
2023-04-26T10:53:48.877Z,1.83
2023-04-26T10:56:27.994Z,6.47
2023-04-26T10:59:33.344Z,7.88
2023-04-26T11:02:01.524Z,3.50
2023-04-26T11:04:53.158Z,4.82
2023-04-26T11:07:39.495Z,2.08
2023-04-26T11:10:23.323Z,4.07
2023-04-26T11:13:03.285Z,3.22
2023-04-26T11:15:34.775Z,4.95
2023-04-26T11:18:06.258Z,3.83
2023-04-26T11:20:34.598Z,2.75
2023-04-26T11:23:02.621Z,3.83
2023-04-26T11:25:30.722Z,3.97
2023-04-26T11:28:03.307Z,4.22
2023-04-26T11:30:32.984Z,2.95
2023-04-26T11:33:02.674Z,6.20
2023-04-26T11:35:33.487Z,6.10
2023-04-26T11:38:01.003Z,8.88
2023-04-26T11:40:33.167Z,3.13
2023-04-26T11:43:08.589Z,2.83
2023-04-26T11:45:38.245Z,2.83
2023-04-26T11:48:10.553Z,3.85
2023-04-26T11:50:39.977Z,2.60
2023-04-26T11:53:08.959Z,4.90
2023-04-26T11:55:36.984Z,10.55
2023-04-26T11:58:13.978Z,3.78
2023-04-26T12:01:04.528Z,5.20
2023-04-26T12:03:35.501Z,7.82
2023-04-26T12:06:06.501Z,4.18
2023-04-26T12:08:34.189Z,3.88
2023-04-26T12:11:04.919Z,2.85
2023-04-26T12:13:33.023Z,6.65
2023-04-26T12:16:00.583Z,6.53
2023-04-26T12:18:32.972Z,3.35
2023-04-26T12:21:01.929Z,3.75
2023-04-26T12:23:40.945Z,4.93
2023-04-26T12:26:11.215Z,5.85
2023-04-26T12:28:38.553Z,6.38
2023-04-26T12:31:07.380Z,3.03
2023-04-26T12:33:35.887Z,1.98
2023-04-26T12:36:11.967Z,1.95
2023-04-26T12:38:40.643Z,4.30
2023-04-26T12:41:08.386Z,6.60
2023-04-26T12:43:35.736Z,4.47
2023-04-26T12:46:03.633Z,2.15
2023-04-26T12:48:30.935Z,2.55
2023-04-26T12:50:58.561Z,2.53
2023-04-26T12:53:25.948Z,2.03
2023-04-26T12:55:53.527Z,2.92
2023-04-26T12:58:22.445Z,3.90
2023-04-26T13:00:51.329Z,2.80
2023-04-26T13:03:18.803Z,2.60
2023-04-26T13:05:46.737Z,2.50
2023-04-26T13:08:14.292Z,2.90
2023-04-26T13:10:42.425Z,3.60
2023-04-26T13:13:09.708Z,1.75
2023-04-26T13:15:37.432Z,3.67
2023-04-26T13:18:05.179Z,1.35
2023-04-26T13:20:32.762Z,4.03
2023-04-26T13:23:00.004Z,5.85
2023-04-26T13:25:27.696Z,5.32
2023-04-26T13:27:55.584Z,3.45
2023-04-26T13:30:23.117Z,6.43
2023-04-26T13:32:50.561Z,3.33
2023-04-26T13:35:18.185Z,2.63
2023-04-26T13:37:45.575Z,2.42
2023-04-26T13:40:13.444Z,3.22
2023-04-26T13:42:41.391Z,2.88
2023-04-26T13:45:17.594Z,4.68
2023-04-26T13:47:46.135Z,1.75
2023-04-26T13:50:13.722Z,1.75
2023-04-26T13:52:40.993Z,3.67
2023-04-26T13:55:14.544Z,4.80
2023-04-26T13:57:42.279Z,3.70
2023-04-26T14:00:12.028Z,3.70
2023-04-26T14:02:39.591Z,4.00
2023-04-26T14:05:09.193Z,4.97
2023-04-26T14:07:36.722Z,4.05
2023-04-26T14:10:04.751Z,3.08
2023-04-26T14:12:32.028Z,3.15
2023-04-26T14:15:02.454Z,3.17
2023-04-26T14:17:29.889Z,2.25
2023-04-26T14:19:57.509Z,2.13
2023-04-26T14:22:26.917Z,3.45
2023-04-26T14:24:54.525Z,3.58
2023-04-26T14:27:21.847Z,1.80
2023-04-26T14:29:49.365Z,3.50
2023-04-26T14:32:16.852Z,9.02
2023-04-26T14:34:44.627Z,3.92
2023-04-26T14:37:12.084Z,4.10
2023-04-26T14:39:39.798Z,3.33
2023-04-26T14:42:07.069Z,2.50
2023-04-26T14:44:34.668Z,3.10
2023-04-26T14:47:01.920Z,2.22
2023-04-26T14:49:29.422Z,2.15
2023-04-26T14:51:56.712Z,3.33
2023-04-26T14:54:24.251Z,2.85
2023-04-26T14:56:52.011Z,4.30
2023-04-26T14:59:19.575Z,6.28
2023-04-26T15:01:47.167Z,5.53
2023-04-26T15:04:14.927Z,7.68
2023-04-26T15:06:42.440Z,11.75
2023-04-26T15:09:11.509Z,3.90
2023-04-26T15:11:38.960Z,4.35
2023-04-26T15:14:06.711Z,3.33
2023-04-26T15:16:35.674Z,3.80
2023-04-26T15:19:03.228Z,4.28
2023-04-26T15:21:34.133Z,4.65
2023-04-26T15:24:01.808Z,12.45
2023-04-26T15:26:31.105Z,4.70
2023-04-26T15:28:58.622Z,5.15
2023-04-26T15:31:25.899Z,2.90
2023-04-26T15:33:56.609Z,5.30
2023-04-26T15:36:24.262Z,3.97
2023-04-26T15:38:51.968Z,2.75
2023-04-26T15:41:19.306Z,4.68
2023-04-26T15:43:46.841Z,4.45
2023-04-26T15:46:15.186Z,5.45
2023-04-26T15:48:42.781Z,8.23
2023-04-26T15:51:10.091Z,3.25
2023-04-26T15:53:43.135Z,3.47
2023-04-26T15:56:18.163Z,7.90
2023-04-26T15:58:47.481Z,7.75
2023-04-26T16:01:15.556Z,7.68
2023-04-26T16:03:47.204Z,12.85
2023-04-26T16:06:15.574Z,7.53
2023-04-26T16:08:43.536Z,4.93
2023-04-26T16:11:11.262Z,3.67
2023-04-26T16:13:38.956Z,4.93
2023-04-26T16:16:10.835Z,3.53
2023-04-26T16:18:43.764Z,3.58
2023-04-26T16:21:12.450Z,5.53
2023-04-26T16:23:43.070Z,4.53
2023-04-26T16:26:10.354Z,4.10
2023-04-26T16:28:38.187Z,6.72
2023-04-26T16:31:06.461Z,6.85
2023-04-26T16:33:34.454Z,4.18
2023-04-26T16:36:01.901Z,4.65
2023-04-26T16:38:29.712Z,4.32
2023-04-26T16:41:01.777Z,5.05
2023-04-26T16:43:34.671Z,6.50
2023-04-26T16:46:05.139Z,6.90
2023-04-26T16:48:37.627Z,6.20
2023-04-26T16:51:08.001Z,8.52
2023-04-26T16:53:37.709Z,8.20
2023-04-26T16:56:05.764Z,7.47
2023-04-26T16:58:33.276Z,11.88
2023-04-26T17:01:00.583Z,22.98
2023-04-26T17:03:28.695Z,16.52
2023-04-26T17:05:56.180Z,8.60
2023-04-26T17:08:23.794Z,5.32
2023-04-26T17:10:52.011Z,5.68
2023-04-26T17:13:20.129Z,3.55
2023-04-26T17:15:48.360Z,3.22
2023-04-26T17:18:15.914Z,3.60
2023-04-26T17:20:43.208Z,6.63
2023-04-26T17:23:11.837Z,5.53
2023-04-26T17:25:39.118Z,7.25
2023-04-26T17:28:06.796Z,8.15
2023-04-26T17:30:34.168Z,8.15
2023-04-26T17:33:01.968Z,7.03
2023-04-26T17:35:29.320Z,9.90
2023-04-26T17:37:56.886Z,9.13
2023-04-26T17:40:24.350Z,8.32
2023-04-26T17:42:51.929Z,29.55
2023-04-26T17:45:19.256Z,39.95
2023-04-26T17:47:46.933Z,28.95
2023-04-26T17:50:15.526Z,9.10
2023-04-26T17:52:43.138Z,6.57
2023-04-26T17:55:10.590Z,6.13
2023-04-26T17:57:38.292Z,5.18
2023-04-26T18:00:07.021Z,6.25
2023-04-26T18:02:36.452Z,5.03
2023-04-26T18:05:05.918Z,4.90
2023-04-26T18:07:33.608Z,6.43
2023-04-26T18:10:00.986Z,7.90
2023-04-26T18:12:30.757Z,8.90
2023-04-26T18:14:58.485Z,10.25
2023-04-26T18:17:26.389Z,7.22
2023-04-26T18:19:53.736Z,6.88
2023-04-26T18:22:21.435Z,6.45
2023-04-26T18:24:48.816Z,9.82
2023-04-26T18:27:16.582Z,9.00
2023-04-26T18:29:44.204Z,11.65
2023-04-26T18:32:12.528Z,10.55
2023-04-26T18:34:40.194Z,11.25
2023-04-26T18:37:08.033Z,20.77
2023-04-26T18:39:35.508Z,43.33
2023-04-26T18:42:03.860Z,25.92
2023-04-26T18:44:31.279Z,10.15
2023-04-26T18:46:58.917Z,8.82
2023-04-26T18:49:27.444Z,9.43
2023-04-26T18:51:57.287Z,8.48
2023-04-26T18:54:24.744Z,8.20
2023-04-26T18:56:52.278Z,13.60
2023-04-26T18:59:19.605Z,48.42
2023-04-26T19:01:47.345Z,78.88
2023-04-26T19:04:14.862Z,39.83
2023-04-26T19:06:42.623Z,26.52
2023-04-26T19:09:13.041Z,26.05
2023-04-26T19:11:40.714Z,13.50
2023-04-26T19:14:07.974Z,11.27
2023-04-26T19:16:35.855Z,12.15
2023-04-26T19:19:03.441Z,14.77
2023-04-26T19:21:32.171Z,13.98
2023-04-26T19:23:59.446Z,13.88
2023-04-26T19:26:27.209Z,14.35
2023-04-26T19:28:56.305Z,13.70
2023-04-26T19:31:24.017Z,21.77
2023-04-26T19:33:51.469Z,100.93
2023-04-26T19:36:19.199Z,106.90
2023-04-26T19:38:48.551Z,32.85
2023-04-26T19:41:16.169Z,23.70
2023-04-26T19:43:43.696Z,18.40
2023-04-26T19:46:15.604Z,16.23
2023-04-26T19:48:43.203Z,13.98
2023-04-26T19:51:18.143Z,18.60
2023-04-26T19:53:45.918Z,11.70
2023-04-26T19:56:13.632Z,11.32
2023-04-26T19:58:43.476Z,16.05
2023-04-26T20:01:11.436Z,134.43
2023-04-26T20:03:40.691Z,101.35
2023-04-26T20:06:09.813Z,41.70
2023-04-26T20:08:37.203Z,25.23
2023-04-26T20:11:05.172Z,18.63
2023-04-26T20:13:33.041Z,19.45
2023-04-26T20:16:00.801Z,28.52
2023-04-26T20:18:28.374Z,38.55
2023-04-26T20:20:56.175Z,27.83
2023-04-26T20:23:23.478Z,24.05
2023-04-26T20:25:54.315Z,27.90
2023-04-26T20:28:24.583Z,20.05
2023-04-26T20:30:53.144Z,34.55
2023-04-26T20:33:20.570Z,38.08
2023-04-26T20:35:49.171Z,33.00
2023-04-26T20:38:16.466Z,27.65
2023-04-26T20:40:44.157Z,25.45
2023-04-26T20:43:12.795Z,28.42
2023-04-26T20:45:43.788Z,23.23
2023-04-26T20:48:11.247Z,226.40
2023-04-26T20:50:39.039Z,72.75
2023-04-26T20:53:06.680Z,44.75
2023-04-26T20:55:34.190Z,36.47
2023-04-26T20:58:01.698Z,32.38
2023-04-26T21:00:30.773Z,35.38
2023-04-26T21:02:58.305Z,32.17
2023-04-26T21:05:26.080Z,29.17
2023-04-26T21:07:53.349Z,26.95
2023-04-26T21:10:21.952Z,26.08
2023-04-26T21:12:49.169Z,25.00
2023-04-26T21:15:16.865Z,30.77
2023-04-26T21:17:44.139Z,31.20
2023-04-26T21:20:12.197Z,31.95
2023-04-26T21:22:39.432Z,41.15
2023-04-26T21:25:07.978Z,36.85
2023-04-26T21:27:35.744Z,41.65
2023-04-26T21:30:04.514Z,40.15
2023-04-26T21:32:31.920Z,43.88
2023-04-26T21:34:59.477Z,50.42
2023-04-26T21:37:26.931Z,58.17
2023-04-26T21:39:54.551Z,53.05
2023-04-26T21:42:21.790Z,43.90
2023-04-26T21:44:49.343Z,36.42
2023-04-26T21:47:16.765Z,29.75
2023-04-26T21:49:44.258Z,29.40
2023-04-26T21:52:11.777Z,27.00
2023-04-26T21:54:39.654Z,29.92
2023-04-26T21:57:07.158Z,24.52
2023-04-26T21:59:35.321Z,23.80
2023-04-26T22:02:03.650Z,24.65
2023-04-26T22:04:32.012Z,26.40
2023-04-26T22:06:59.313Z,24.50
2023-04-26T22:09:26.847Z,22.70
2023-04-26T22:11:55.072Z,19.63
2023-04-26T22:14:22.730Z,17.33
2023-04-26T22:16:50.071Z,24.98
2023-04-26T22:19:17.670Z,23.55
2023-04-26T22:21:44.890Z,24.08
2023-04-26T22:24:12.410Z,25.38
2023-04-26T22:26:39.615Z,22.85
2023-04-26T22:29:07.210Z,27.55
2023-04-26T22:31:34.488Z,24.58
2023-04-26T22:34:02.225Z,20.98
2023-04-26T22:36:29.426Z,23.42
2023-04-26T22:38:59.063Z,22.05
2023-04-26T22:41:27.528Z,23.63
2023-04-26T22:43:55.100Z,29.42
2023-04-26T22:46:22.430Z,32.83
2023-04-26T22:48:49.944Z,32.60
2023-04-26T22:51:17.270Z,28.52
2023-04-26T22:53:44.789Z,28.45
2023-04-26T22:56:12.043Z,29.52
2023-04-26T22:58:39.563Z,29.80
2023-04-26T23:01:06.962Z,30.85
2023-04-26T23:03:37.893Z,26.30
2023-04-26T23:06:06.075Z,22.50
2023-04-26T23:08:33.669Z,24.08
2023-04-26T23:11:01.086Z,25.15
2023-04-26T23:13:29.668Z,21.58
2023-04-26T23:15:57.154Z,22.60
2023-04-26T23:18:26.565Z,24.92
2023-04-26T23:20:53.975Z,20.45
2023-04-26T23:23:21.538Z,19.48
2023-04-26T23:25:48.959Z,19.95
2023-04-26T23:28:16.459Z,17.40
2023-04-26T23:30:43.777Z,20.60
2023-04-26T23:33:11.282Z,18.88
2023-04-26T23:35:42.458Z,17.00
2023-04-26T23:38:10.085Z,17.67
2023-04-26T23:40:37.414Z,15.23
2023-04-26T23:43:06.293Z,15.13
2023-04-26T23:45:33.648Z,14.18
2023-04-26T23:48:01.992Z,11.75
2023-04-26T23:50:29.330Z,13.05
2023-04-26T23:52:57.035Z,15.82
2023-04-26T23:55:24.319Z,13.80
2023-04-26T23:57:51.917Z,15.27
